Adamsville, Utah
Current Conditions -  °F | °C
As of 2:52 AM on Friday 28 Nov 2014 (Local Time) from KMLF Reporting Station
Clear Clear  
Wind Chill: -4°   Ceiling: Unl
Heat Index:   Visibility: 10mi
Dew Point: -9°   Wind: 12mph
Humidity: 48%   Direction: 180°S
Pressure: 30.17"   Gusts: NA
Location:  38.2672°N, 112.728°W
Report Text: KMLF 280952Z AUTO 18010KT 10SM CLR 01/M09 A3017 RMK AO2 SLP200 T00061094 TSNO
Loading
Personal Weather Stations






























Interactive Weather Map New forecast layout! Learn more

10-Day Weather Forecast

Advertisements
Track Severe Weather on mobile